sensor_id;sensor_type;location;lat;lon;timestamp;P1;durP1;ratioP1;P2;durP2;ratioP2
51270;SDS011;37744;50.960;4.136;2023-06-04T00:01:51;4.38;;;1.35;;
51270;SDS011;37744;50.960;4.136;2023-06-04T00:04:16;5.40;;;1.27;;
51270;SDS011;37744;50.960;4.136;2023-06-04T00:06:41;3.90;;;1.20;;
51270;SDS011;37744;50.960;4.136;2023-06-04T00:09:06;4.07;;;1.38;;
51270;SDS011;37744;50.960;4.136;2023-06-04T00:11:32;3.22;;;1.23;;
51270;SDS011;37744;50.960;4.136;2023-06-04T00:13:59;3.10;;;1.40;;
51270;SDS011;37744;50.960;4.136;2023-06-04T00:16:24;3.13;;;1.05;;
51270;SDS011;37744;50.960;4.136;2023-06-04T00:18:50;2.92;;;1.30;;
51270;SDS011;37744;50.960;4.136;2023-06-04T00:21:15;1.70;;;1.30;;
51270;SDS011;37744;50.960;4.136;2023-06-04T00:23:40;5.97;;;1.30;;
51270;SDS011;37744;50.960;4.136;2023-06-04T00:26:05;4.15;;;1.20;;
51270;SDS011;37744;50.960;4.136;2023-06-04T00:28:31;2.85;;;1.20;;
51270;SDS011;37744;50.960;4.136;2023-06-04T00:30:56;4.65;;;1.20;;
51270;SDS011;37744;50.960;4.136;2023-06-04T00:33:21;5.30;;;1.05;;
51270;SDS011;37744;50.960;4.136;2023-06-04T00:35:47;4.80;;;1.25;;
51270;SDS011;37744;50.960;4.136;2023-06-04T00:38:12;1.83;;;1.10;;
51270;SDS011;37744;50.960;4.136;2023-06-04T00:40:37;3.00;;;1.17;;
51270;SDS011;37744;50.960;4.136;2023-06-04T00:43:03;2.50;;;1.27;;
51270;SDS011;37744;50.960;4.136;2023-06-04T00:45:28;5.32;;;1.40;;
51270;SDS011;37744;50.960;4.136;2023-06-04T00:47:56;1.75;;;1.15;;
51270;SDS011;37744;50.960;4.136;2023-06-04T00:50:21;3.10;;;1.30;;
51270;SDS011;37744;50.960;4.136;2023-06-04T00:52:47;2.08;;;1.30;;
51270;SDS011;37744;50.960;4.136;2023-06-04T00:55:13;3.55;;;1.67;;
51270;SDS011;37744;50.960;4.136;2023-06-04T00:57:38;5.70;;;1.80;;
51270;SDS011;37744;50.960;4.136;2023-06-04T01:00:04;6.45;;;1.50;;
51270;SDS011;37744;50.960;4.136;2023-06-04T01:02:30;3.35;;;1.70;;
51270;SDS011;37744;50.960;4.136;2023-06-04T01:07:23;2.28;;;1.42;;
51270;SDS011;37744;50.960;4.136;2023-06-04T01:09:52;3.25;;;1.60;;
51270;SDS011;37744;50.960;4.136;2023-06-04T01:12:17;4.20;;;1.80;;
51270;SDS011;37744;50.960;4.136;2023-06-04T01:14:43;4.63;;;1.70;;
51270;SDS011;37744;50.960;4.136;2023-06-04T01:22:29;2.28;;;1.70;;
51270;SDS011;37744;50.960;4.136;2023-06-04T01:24:56;4.40;;;1.70;;
51270;SDS011;37744;50.960;4.136;2023-06-04T01:27:24;1.65;;;1.52;;
51270;SDS011;37744;50.960;4.136;2023-06-04T01:29:50;3.15;;;1.80;;
51270;SDS011;37744;50.960;4.136;2023-06-04T01:32:16;3.67;;;2.00;;
51270;SDS011;37744;50.960;4.136;2023-06-04T01:34:46;4.10;;;1.80;;
51270;SDS011;37744;50.960;4.136;2023-06-04T01:37:11;4.15;;;2.13;;
51270;SDS011;37744;50.960;4.136;2023-06-04T01:39:37;4.03;;;2.22;;
51270;SDS011;37744;50.960;4.136;2023-06-04T01:42:02;2.65;;;1.70;;
51270;SDS011;37744;50.960;4.136;2023-06-04T01:44:28;5.10;;;2.15;;
51270;SDS011;37744;50.960;4.136;2023-06-04T01:46:53;6.80;;;1.83;;
51270;SDS011;37744;50.960;4.136;2023-06-04T01:49:18;5.18;;;2.13;;
51270;SDS011;37744;50.960;4.136;2023-06-04T01:51:43;6.10;;;2.00;;
51270;SDS011;37744;50.960;4.136;2023-06-04T01:54:09;5.25;;;1.70;;
51270;SDS011;37744;50.960;4.136;2023-06-04T01:56:34;3.15;;;1.73;;
51270;SDS011;37744;50.960;4.136;2023-06-04T01:58:59;6.45;;;1.63;;
51270;SDS011;37744;50.960;4.136;2023-06-04T02:01:26;5.80;;;1.92;;
51270;SDS011;37744;50.960;4.136;2023-06-04T02:03:51;5.30;;;2.00;;
51270;SDS011;37744;50.960;4.136;2023-06-04T02:06:17;2.50;;;1.73;;
51270;SDS011;37744;50.960;4.136;2023-06-04T02:08:42;4.85;;;2.17;;
51270;SDS011;37744;50.960;4.136;2023-06-04T02:11:08;4.03;;;2.03;;
51270;SDS011;37744;50.960;4.136;2023-06-04T02:13:33;4.05;;;1.48;;
51270;SDS011;37744;50.960;4.136;2023-06-04T02:15:59;5.90;;;2.47;;
51270;SDS011;37744;50.960;4.136;2023-06-04T02:18:24;3.03;;;2.00;;
51270;SDS011;37744;50.960;4.136;2023-06-04T02:20:50;3.50;;;1.98;;
51270;SDS011;37744;50.960;4.136;2023-06-04T02:23:16;3.25;;;2.10;;
51270;SDS011;37744;50.960;4.136;2023-06-04T02:25:42;3.67;;;2.25;;
51270;SDS011;37744;50.960;4.136;2023-06-04T02:28:09;6.30;;;2.00;;
51270;SDS011;37744;50.960;4.136;2023-06-04T02:30:35;3.15;;;1.67;;
51270;SDS011;37744;50.960;4.136;2023-06-04T02:33:00;2.00;;;1.80;;
51270;SDS011;37744;50.960;4.136;2023-06-04T02:35:26;6.68;;;2.60;;
51270;SDS011;37744;50.960;4.136;2023-06-04T02:37:52;3.55;;;2.15;;
51270;SDS011;37744;50.960;4.136;2023-06-04T02:40:17;5.05;;;1.83;;
51270;SDS011;37744;50.960;4.136;2023-06-04T02:42:42;2.75;;;2.15;;
51270;SDS011;37744;50.960;4.136;2023-06-04T02:45:08;2.75;;;1.70;;
51270;SDS011;37744;50.960;4.136;2023-06-04T02:47:33;2.55;;;1.65;;
51270;SDS011;37744;50.960;4.136;2023-06-04T02:49:58;7.18;;;2.13;;
51270;SDS011;37744;50.960;4.136;2023-06-04T02:52:23;3.97;;;1.80;;
51270;SDS011;37744;50.960;4.136;2023-06-04T02:54:50;4.50;;;1.70;;
51270;SDS011;37744;50.960;4.136;2023-06-04T02:57:16;3.20;;;1.90;;
51270;SDS011;37744;50.960;4.136;2023-06-04T02:59:41;2.00;;;1.90;;
51270;SDS011;37744;50.960;4.136;2023-06-04T03:02:06;3.08;;;1.85;;
51270;SDS011;37744;50.960;4.136;2023-06-04T03:04:31;2.28;;;1.80;;
51270;SDS011;37744;50.960;4.136;2023-06-04T03:06:59;3.67;;;1.83;;
51270;SDS011;37744;50.960;4.136;2023-06-04T03:09:25;2.85;;;1.83;;
51270;SDS011;37744;50.960;4.136;2023-06-04T03:11:50;4.32;;;1.58;;
51270;SDS011;37744;50.960;4.136;2023-06-04T03:14:16;4.10;;;1.70;;
51270;SDS011;37744;50.960;4.136;2023-06-04T03:16:43;2.40;;;1.80;;
51270;SDS011;37744;50.960;4.136;2023-06-04T03:19:10;4.53;;;1.90;;
51270;SDS011;37744;50.960;4.136;2023-06-04T03:21:36;5.45;;;1.98;;
51270;SDS011;37744;50.960;4.136;2023-06-04T03:24:05;3.85;;;2.05;;
51270;SDS011;37744;50.960;4.136;2023-06-04T03:26:30;4.07;;;2.00;;
51270;SDS011;37744;50.960;4.136;2023-06-04T03:28:56;5.55;;;2.20;;
51270;SDS011;37744;50.960;4.136;2023-06-04T03:31:21;7.25;;;1.98;;
51270;SDS011;37744;50.960;4.136;2023-06-04T03:33:46;2.08;;;1.75;;
51270;SDS011;37744;50.960;4.136;2023-06-04T03:36:11;4.57;;;1.77;;
51270;SDS011;37744;50.960;4.136;2023-06-04T03:38:37;3.70;;;2.10;;
51270;SDS011;37744;50.960;4.136;2023-06-04T03:41:02;4.10;;;1.95;;
51270;SDS011;37744;50.960;4.136;2023-06-04T03:43:27;7.47;;;1.75;;
51270;SDS011;37744;50.960;4.136;2023-06-04T03:45:53;7.35;;;1.92;;
51270;SDS011;37744;50.960;4.136;2023-06-04T03:48:18;2.60;;;1.88;;
51270;SDS011;37744;50.960;4.136;2023-06-04T03:50:43;5.53;;;1.73;;
51270;SDS011;37744;50.960;4.136;2023-06-04T03:53:11;3.80;;;1.92;;
51270;SDS011;37744;50.960;4.136;2023-06-04T03:55:36;3.47;;;1.83;;
51270;SDS011;37744;50.960;4.136;2023-06-04T03:58:02;3.20;;;1.88;;
51270;SDS011;37744;50.960;4.136;2023-06-04T04:00:27;5.38;;;1.77;;
51270;SDS011;37744;50.960;4.136;2023-06-04T04:02:53;2.10;;;1.80;;
51270;SDS011;37744;50.960;4.136;2023-06-04T04:05:18;4.43;;;1.90;;
51270;SDS011;37744;50.960;4.136;2023-06-04T04:07:43;2.85;;;1.80;;
51270;SDS011;37744;50.960;4.136;2023-06-04T04:10:08;5.80;;;2.00;;
51270;SDS011;37744;50.960;4.136;2023-06-04T04:12:34;2.10;;;1.83;;
51270;SDS011;37744;50.960;4.136;2023-06-04T04:15:00;5.05;;;2.13;;
51270;SDS011;37744;50.960;4.136;2023-06-04T04:17:25;4.57;;;2.08;;
51270;SDS011;37744;50.960;4.136;2023-06-04T04:19:51;4.15;;;1.98;;
51270;SDS011;37744;50.960;4.136;2023-06-04T04:22:16;4.00;;;2.00;;
51270;SDS011;37744;50.960;4.136;2023-06-04T04:24:45;2.80;;;1.90;;
51270;SDS011;37744;50.960;4.136;2023-06-04T04:27:10;4.03;;;1.98;;
51270;SDS011;37744;50.960;4.136;2023-06-04T04:29:38;3.58;;;1.73;;
51270;SDS011;37744;50.960;4.136;2023-06-04T04:32:04;4.80;;;1.85;;
51270;SDS011;37744;50.960;4.136;2023-06-04T04:34:36;3.65;;;2.00;;
51270;SDS011;37744;50.960;4.136;2023-06-04T04:37:02;5.80;;;2.28;;
51270;SDS011;37744;50.960;4.136;2023-06-04T04:39:28;2.45;;;1.90;;
51270;SDS011;37744;50.960;4.136;2023-06-04T04:41:54;3.28;;;2.05;;
51270;SDS011;37744;50.960;4.136;2023-06-04T04:44:19;2.88;;;2.15;;
51270;SDS011;37744;50.960;4.136;2023-06-04T04:46:45;8.20;;;2.10;;
51270;SDS011;37744;50.960;4.136;2023-06-04T04:49:10;2.50;;;1.88;;
51270;SDS011;37744;50.960;4.136;2023-06-04T04:51:35;2.97;;;2.30;;
51270;SDS011;37744;50.960;4.136;2023-06-04T04:54:01;5.88;;;2.30;;
51270;SDS011;37744;50.960;4.136;2023-06-04T04:56:27;4.97;;;2.10;;
51270;SDS011;37744;50.960;4.136;2023-06-04T04:58:52;6.95;;;2.15;;
51270;SDS011;37744;50.960;4.136;2023-06-04T05:01:18;8.27;;;2.80;;
51270;SDS011;37744;50.960;4.136;2023-06-04T05:03:43;3.83;;;1.88;;
51270;SDS011;37744;50.960;4.136;2023-06-04T05:06:08;4.25;;;2.33;;
51270;SDS011;37744;50.960;4.136;2023-06-04T05:08:34;4.00;;;1.98;;
51270;SDS011;37744;50.960;4.136;2023-06-04T05:11:00;3.67;;;2.00;;
51270;SDS011;37744;50.960;4.136;2023-06-04T05:13:25;8.38;;;2.53;;
51270;SDS011;37744;50.960;4.136;2023-06-04T05:15:51;3.10;;;1.77;;
51270;SDS011;37744;50.960;4.136;2023-06-04T05:18:17;5.40;;;2.42;;
51270;SDS011;37744;50.960;4.136;2023-06-04T05:20:45;6.22;;;2.65;;
51270;SDS011;37744;50.960;4.136;2023-06-04T05:23:10;3.92;;;2.28;;
51270;SDS011;37744;50.960;4.136;2023-06-04T05:25:37;6.55;;;2.60;;
51270;SDS011;37744;50.960;4.136;2023-06-04T05:28:02;3.97;;;2.50;;
51270;SDS011;37744;50.960;4.136;2023-06-04T05:30:28;5.85;;;2.85;;
51270;SDS011;37744;50.960;4.136;2023-06-04T05:32:53;3.88;;;2.35;;
51270;SDS011;37744;50.960;4.136;2023-06-04T05:35:18;4.65;;;2.80;;
51270;SDS011;37744;50.960;4.136;2023-06-04T05:37:44;6.75;;;2.58;;
51270;SDS011;37744;50.960;4.136;2023-06-04T05:40:10;3.70;;;2.17;;
51270;SDS011;37744;50.960;4.136;2023-06-04T05:42:36;4.63;;;2.78;;
51270;SDS011;37744;50.960;4.136;2023-06-04T05:45:01;5.78;;;3.00;;
51270;SDS011;37744;50.960;4.136;2023-06-04T05:47:27;4.28;;;2.10;;
51270;SDS011;37744;50.960;4.136;2023-06-04T05:49:53;8.05;;;2.60;;
51270;SDS011;37744;50.960;4.136;2023-06-04T05:52:19;13.82;;;2.75;;
51270;SDS011;37744;50.960;4.136;2023-06-04T05:54:44;6.25;;;2.60;;
51270;SDS011;37744;50.960;4.136;2023-06-04T05:57:10;5.95;;;2.70;;
51270;SDS011;37744;50.960;4.136;2023-06-04T05:59:35;5.57;;;2.72;;
51270;SDS011;37744;50.960;4.136;2023-06-04T06:02:02;6.40;;;2.08;;
51270;SDS011;37744;50.960;4.136;2023-06-04T06:04:27;6.03;;;2.47;;
51270;SDS011;37744;50.960;4.136;2023-06-04T06:06:52;6.32;;;2.83;;
51270;SDS011;37744;50.960;4.136;2023-06-04T06:09:19;4.00;;;2.53;;
51270;SDS011;37744;50.960;4.136;2023-06-04T06:11:44;6.22;;;2.53;;
51270;SDS011;37744;50.960;4.136;2023-06-04T06:14:09;4.40;;;2.53;;
51270;SDS011;37744;50.960;4.136;2023-06-04T06:16:35;7.05;;;3.25;;
51270;SDS011;37744;50.960;4.136;2023-06-04T06:19:01;8.13;;;2.38;;
51270;SDS011;37744;50.960;4.136;2023-06-04T06:21:26;7.88;;;2.72;;
51270;SDS011;37744;50.960;4.136;2023-06-04T06:23:52;7.20;;;2.65;;
51270;SDS011;37744;50.960;4.136;2023-06-04T06:26:17;4.13;;;2.50;;
51270;SDS011;37744;50.960;4.136;2023-06-04T06:28:43;7.30;;;2.80;;
51270;SDS011;37744;50.960;4.136;2023-06-04T06:31:09;3.85;;;2.50;;
51270;SDS011;37744;50.960;4.136;2023-06-04T06:33:34;3.97;;;2.55;;
51270;SDS011;37744;50.960;4.136;2023-06-04T06:35:59;4.40;;;2.65;;
51270;SDS011;37744;50.960;4.136;2023-06-04T06:38:25;5.88;;;2.35;;
51270;SDS011;37744;50.960;4.136;2023-06-04T06:40:52;4.82;;;2.60;;
51270;SDS011;37744;50.960;4.136;2023-06-04T06:43:17;7.43;;;2.22;;
51270;SDS011;37744;50.960;4.136;2023-06-04T06:45:43;3.28;;;2.15;;
51270;SDS011;37744;50.960;4.136;2023-06-04T06:48:09;4.10;;;2.67;;
51270;SDS011;37744;50.960;4.136;2023-06-04T06:50:34;3.75;;;2.30;;
51270;SDS011;37744;50.960;4.136;2023-06-04T06:53:02;4.47;;;1.92;;
51270;SDS011;37744;50.960;4.136;2023-06-04T06:55:28;5.47;;;2.28;;
51270;SDS011;37744;50.960;4.136;2023-06-04T06:57:53;5.72;;;2.30;;
51270;SDS011;37744;50.960;4.136;2023-06-04T07:00:18;2.15;;;1.95;;
51270;SDS011;37744;50.960;4.136;2023-06-04T07:02:43;4.75;;;2.17;;
51270;SDS011;37744;50.960;4.136;2023-06-04T07:05:09;3.75;;;1.92;;
51270;SDS011;37744;50.960;4.136;2023-06-04T07:07:34;3.63;;;1.83;;
51270;SDS011;37744;50.960;4.136;2023-06-04T07:10:00;4.90;;;2.03;;
51270;SDS011;37744;50.960;4.136;2023-06-04T07:12:25;3.65;;;1.83;;
51270;SDS011;37744;50.960;4.136;2023-06-04T07:14:51;6.78;;;1.85;;
51270;SDS011;37744;50.960;4.136;2023-06-04T07:17:16;2.90;;;1.75;;
51270;SDS011;37744;50.960;4.136;2023-06-04T07:19:41;4.40;;;1.92;;
51270;SDS011;37744;50.960;4.136;2023-06-04T07:22:07;3.13;;;2.03;;
51270;SDS011;37744;50.960;4.136;2023-06-04T07:24:32;5.65;;;2.05;;
51270;SDS011;37744;50.960;4.136;2023-06-04T07:26:57;3.90;;;1.88;;
51270;SDS011;37744;50.960;4.136;2023-06-04T07:29:22;5.55;;;2.35;;
51270;SDS011;37744;50.960;4.136;2023-06-04T07:31:48;6.25;;;1.85;;
51270;SDS011;37744;50.960;4.136;2023-06-04T07:34:13;3.00;;;1.92;;
51270;SDS011;37744;50.960;4.136;2023-06-04T07:36:38;3.60;;;1.95;;
51270;SDS011;37744;50.960;4.136;2023-06-04T07:39:04;2.20;;;1.67;;
51270;SDS011;37744;50.960;4.136;2023-06-04T07:41:32;2.00;;;1.73;;
51270;SDS011;37744;50.960;4.136;2023-06-04T07:43:57;6.47;;;1.90;;
51270;SDS011;37744;50.960;4.136;2023-06-04T07:46:23;3.45;;;1.80;;
51270;SDS011;37744;50.960;4.136;2023-06-04T07:48:48;3.22;;;1.63;;
51270;SDS011;37744;50.960;4.136;2023-06-04T07:51:13;2.95;;;1.80;;
51270;SDS011;37744;50.960;4.136;2023-06-04T07:53:39;5.43;;;1.95;;
51270;SDS011;37744;50.960;4.136;2023-06-04T07:56:05;4.15;;;1.58;;
51270;SDS011;37744;50.960;4.136;2023-06-04T07:58:30;4.53;;;1.67;;
51270;SDS011;37744;50.960;4.136;2023-06-04T08:00:56;4.30;;;1.50;;
51270;SDS011;37744;50.960;4.136;2023-06-04T08:03:21;3.72;;;1.60;;
51270;SDS011;37744;50.960;4.136;2023-06-04T08:05:46;3.33;;;1.63;;
51270;SDS011;37744;50.960;4.136;2023-06-04T08:08:12;2.78;;;1.50;;
51270;SDS011;37744;50.960;4.136;2023-06-04T08:10:39;5.82;;;1.70;;
51270;SDS011;37744;50.960;4.136;2023-06-04T08:13:05;2.47;;;1.60;;
51270;SDS011;37744;50.960;4.136;2023-06-04T08:15:30;1.85;;;1.55;;
51270;SDS011;37744;50.960;4.136;2023-06-04T08:17:56;1.85;;;1.23;;
51270;SDS011;37744;50.960;4.136;2023-06-04T08:20:21;3.92;;;1.80;;
51270;SDS011;37744;50.960;4.136;2023-06-04T08:22:47;4.97;;;1.50;;
51270;SDS011;37744;50.960;4.136;2023-06-04T08:25:12;3.00;;;1.40;;
51270;SDS011;37744;50.960;4.136;2023-06-04T08:27:39;4.22;;;1.45;;
51270;SDS011;37744;50.960;4.136;2023-06-04T08:30:04;2.70;;;1.10;;
51270;SDS011;37744;50.960;4.136;2023-06-04T08:32:30;5.10;;;1.40;;
51270;SDS011;37744;50.960;4.136;2023-06-04T08:34:55;2.97;;;1.30;;
51270;SDS011;37744;50.960;4.136;2023-06-04T08:37:21;3.03;;;1.48;;
51270;SDS011;37744;50.960;4.136;2023-06-04T08:39:46;3.63;;;1.20;;
51270;SDS011;37744;50.960;4.136;2023-06-04T08:42:22;2.45;;;1.13;;
51270;SDS011;37744;50.960;4.136;2023-06-04T08:44:50;4.18;;;1.45;;
51270;SDS011;37744;50.960;4.136;2023-06-04T08:47:18;3.83;;;1.20;;
51270;SDS011;37744;50.960;4.136;2023-06-04T08:49:44;2.08;;;0.95;;
51270;SDS011;37744;50.960;4.136;2023-06-04T08:52:12;2.05;;;1.10;;
51270;SDS011;37744;50.960;4.136;2023-06-04T08:54:37;6.07;;;1.45;;
51270;SDS011;37744;50.960;4.136;2023-06-04T08:57:03;2.22;;;1.35;;
51270;SDS011;37744;50.960;4.136;2023-06-04T08:59:28;2.22;;;1.40;;
51270;SDS011;37744;50.960;4.136;2023-06-04T09:01:54;1.65;;;1.10;;
51270;SDS011;37744;50.960;4.136;2023-06-04T09:04:19;5.72;;;1.63;;
51270;SDS011;37744;50.960;4.136;2023-06-04T09:06:46;1.35;;;1.23;;
51270;SDS011;37744;50.960;4.136;2023-06-04T09:09:12;4.45;;;1.48;;
51270;SDS011;37744;50.960;4.136;2023-06-04T09:11:53;2.45;;;1.00;;
51270;SDS011;37744;50.960;4.136;2023-06-04T09:14:19;4.00;;;1.20;;
51270;SDS011;37744;50.960;4.136;2023-06-04T09:16:47;2.05;;;1.15;;
51270;SDS011;37744;50.960;4.136;2023-06-04T09:19:12;1.65;;;1.20;;
51270;SDS011;37744;50.960;4.136;2023-06-04T09:21:54;1.92;;;1.25;;
51270;SDS011;37744;50.960;4.136;2023-06-04T09:24:20;2.30;;;1.13;;
51270;SDS011;37744;50.960;4.136;2023-06-04T09:26:46;1.70;;;1.10;;
51270;SDS011;37744;50.960;4.136;2023-06-04T09:29:11;2.38;;;1.20;;
51270;SDS011;37744;50.960;4.136;2023-06-04T09:31:37;4.78;;;1.00;;
51270;SDS011;37744;50.960;4.136;2023-06-04T09:34:03;9.52;;;1.10;;
51270;SDS011;37744;50.960;4.136;2023-06-04T09:36:35;4.25;;;1.10;;
51270;SDS011;37744;50.960;4.136;2023-06-04T09:39:22;1.90;;;0.75;;
51270;SDS011;37744;50.960;4.136;2023-06-04T09:42:01;4.55;;;1.50;;
51270;SDS011;37744;50.960;4.136;2023-06-04T09:44:26;5.82;;;1.40;;
51270;SDS011;37744;50.960;4.136;2023-06-04T09:46:55;3.15;;;1.15;;
51270;SDS011;37744;50.960;4.136;2023-06-04T09:49:21;2.88;;;0.95;;
51270;SDS011;37744;50.960;4.136;2023-06-04T09:51:47;1.73;;;1.05;;
51270;SDS011;37744;50.960;4.136;2023-06-04T09:54:13;4.65;;;1.17;;
51270;SDS011;37744;50.960;4.136;2023-06-04T09:56:39;1.40;;;1.30;;
51270;SDS011;37744;50.960;4.136;2023-06-04T09:59:05;3.63;;;1.10;;
51270;SDS011;37744;50.960;4.136;2023-06-04T10:01:30;2.75;;;1.10;;
51270;SDS011;37744;50.960;4.136;2023-06-04T10:03:58;2.42;;;1.20;;
51270;SDS011;37744;50.960;4.136;2023-06-04T10:06:25;5.63;;;1.40;;
51270;SDS011;37744;50.960;4.136;2023-06-04T10:08:52;3.08;;;1.10;;
51270;SDS011;37744;50.960;4.136;2023-06-04T10:11:25;5.25;;;1.23;;
51270;SDS011;37744;50.960;4.136;2023-06-04T10:13:56;2.78;;;1.10;;
51270;SDS011;37744;50.960;4.136;2023-06-04T10:16:24;2.22;;;1.40;;
51270;SDS011;37744;50.960;4.136;2023-06-04T10:18:52;3.33;;;1.17;;
51270;SDS011;37744;50.960;4.136;2023-06-04T10:21:17;2.92;;;1.20;;
51270;SDS011;37744;50.960;4.136;2023-06-04T10:23:43;2.55;;;1.10;;
51270;SDS011;37744;50.960;4.136;2023-06-04T10:26:14;3.30;;;1.17;;
51270;SDS011;37744;50.960;4.136;2023-06-04T10:28:40;4.25;;;1.25;;
51270;SDS011;37744;50.960;4.136;2023-06-04T10:31:06;2.40;;;1.20;;
51270;SDS011;37744;50.960;4.136;2023-06-04T10:33:32;2.40;;;0.90;;
51270;SDS011;37744;50.960;4.136;2023-06-04T10:35:57;2.63;;;0.90;;
51270;SDS011;37744;50.960;4.136;2023-06-04T10:38:24;3.85;;;1.20;;
51270;SDS011;37744;50.960;4.136;2023-06-04T10:40:50;1.73;;;1.20;;
51270;SDS011;37744;50.960;4.136;2023-06-04T10:43:15;3.40;;;0.82;;
51270;SDS011;37744;50.960;4.136;2023-06-04T10:45:41;2.13;;;1.08;;
51270;SDS011;37744;50.960;4.136;2023-06-04T10:48:07;4.60;;;1.15;;
51270;SDS011;37744;50.960;4.136;2023-06-04T10:50:33;2.00;;;0.98;;
51270;SDS011;37744;50.960;4.136;2023-06-04T10:52:59;3.30;;;1.10;;
51270;SDS011;37744;50.960;4.136;2023-06-04T10:55:28;2.08;;;1.10;;
51270;SDS011;37744;50.960;4.136;2023-06-04T11:00:19;1.80;;;1.08;;
51270;SDS011;37744;50.960;4.136;2023-06-04T11:02:56;5.97;;;1.30;;
51270;SDS011;37744;50.960;4.136;2023-06-04T11:05:22;3.53;;;0.95;;
51270;SDS011;37744;50.960;4.136;2023-06-04T11:07:48;2.72;;;1.83;;
51270;SDS011;37744;50.960;4.136;2023-06-04T11:10:14;2.25;;;1.02;;
51270;SDS011;37744;50.960;4.136;2023-06-04T11:12:43;4.60;;;1.38;;
51270;SDS011;37744;50.960;4.136;2023-06-04T11:15:09;1.90;;;0.90;;
51270;SDS011;37744;50.960;4.136;2023-06-04T11:17:34;2.45;;;1.17;;
51270;SDS011;37744;50.960;4.136;2023-06-04T11:20:00;2.00;;;1.15;;
51270;SDS011;37744;50.960;4.136;2023-06-04T11:22:25;5.82;;;1.20;;
51270;SDS011;37744;50.960;4.136;2023-06-04T11:24:56;3.45;;;1.20;;
51270;SDS011;37744;50.960;4.136;2023-06-04T11:27:21;2.30;;;1.10;;
51270;SDS011;37744;50.960;4.136;2023-06-04T11:29:49;3.40;;;1.00;;
51270;SDS011;37744;50.960;4.136;2023-06-04T11:32:21;3.25;;;0.93;;
51270;SDS011;37744;50.960;4.136;2023-06-04T11:34:47;2.83;;;0.97;;
51270;SDS011;37744;50.960;4.136;2023-06-04T11:37:12;1.50;;;0.90;;
51270;SDS011;37744;50.960;4.136;2023-06-04T11:39:37;1.17;;;1.00;;
51270;SDS011;37744;50.960;4.136;2023-06-04T11:42:04;3.78;;;1.25;;
51270;SDS011;37744;50.960;4.136;2023-06-04T11:44:31;3.20;;;1.10;;
51270;SDS011;37744;50.960;4.136;2023-06-04T11:46:57;1.40;;;0.95;;
51270;SDS011;37744;50.960;4.136;2023-06-04T11:49:23;2.67;;;0.80;;
51270;SDS011;37744;50.960;4.136;2023-06-04T11:51:52;2.55;;;0.88;;
51270;SDS011;37744;50.960;4.136;2023-06-04T11:54:18;1.98;;;0.90;;
51270;SDS011;37744;50.960;4.136;2023-06-04T11:56:43;2.10;;;1.10;;
51270;SDS011;37744;50.960;4.136;2023-06-04T11:59:10;2.78;;;1.05;;
51270;SDS011;37744;50.960;4.136;2023-06-04T12:01:38;3.47;;;1.13;;
51270;SDS011;37744;50.960;4.136;2023-06-04T12:04:11;1.83;;;1.10;;
51270;SDS011;37744;50.960;4.136;2023-06-04T12:06:36;2.08;;;1.05;;
51270;SDS011;37744;50.960;4.136;2023-06-04T12:09:03;2.42;;;0.80;;
51270;SDS011;37744;50.960;4.136;2023-06-04T12:11:32;1.23;;;1.10;;
51270;SDS011;37744;50.960;4.136;2023-06-04T12:13:58;0.95;;;0.90;;
51270;SDS011;37744;50.960;4.136;2023-06-04T12:16:25;2.05;;;1.10;;
51270;SDS011;37744;50.960;4.136;2023-06-04T12:18:51;4.63;;;1.50;;
51270;SDS011;37744;50.960;4.136;2023-06-04T12:21:23;3.35;;;1.00;;
51270;SDS011;37744;50.960;4.136;2023-06-04T12:24:25;1.52;;;1.10;;
51270;SDS011;37744;50.960;4.136;2023-06-04T12:26:43;2.22;;;1.00;;
51270;SDS011;37744;50.960;4.136;2023-06-04T12:29:10;2.20;;;1.17;;
51270;SDS011;37744;50.960;4.136;2023-06-04T12:31:36;1.63;;;1.08;;
51270;SDS011;37744;50.960;4.136;2023-06-04T12:34:02;1.55;;;1.20;;
51270;SDS011;37744;50.960;4.136;2023-06-04T12:36:27;2.33;;;1.20;;
51270;SDS011;37744;50.960;4.136;2023-06-04T12:38:55;2.47;;;1.17;;
51270;SDS011;37744;50.960;4.136;2023-06-04T12:41:20;1.52;;;0.90;;
51270;SDS011;37744;50.960;4.136;2023-06-04T12:43:46;2.55;;;1.20;;
51270;SDS011;37744;50.960;4.136;2023-06-04T12:46:11;1.95;;;1.10;;
51270;SDS011;37744;50.960;4.136;2023-06-04T12:48:38;1.30;;;1.20;;
51270;SDS011;37744;50.960;4.136;2023-06-04T12:51:03;1.83;;;1.27;;
51270;SDS011;37744;50.960;4.136;2023-06-04T12:53:28;1.10;;;0.93;;
51270;SDS011;37744;50.960;4.136;2023-06-04T12:55:53;2.77;;;1.20;;
51270;SDS011;37744;50.960;4.136;2023-06-04T12:58:18;6.30;;;1.40;;
51270;SDS011;37744;50.960;4.136;2023-06-04T13:00:44;1.80;;;1.03;;
51270;SDS011;37744;50.960;4.136;2023-06-04T13:03:09;1.23;;;0.95;;
51270;SDS011;37744;50.960;4.136;2023-06-04T13:05:36;3.60;;;1.00;;
51270;SDS011;37744;50.960;4.136;2023-06-04T13:08:01;2.40;;;1.20;;
51270;SDS011;37744;50.960;4.136;2023-06-04T13:10:28;3.05;;;1.40;;
51270;SDS011;37744;50.960;4.136;2023-06-04T13:12:53;2.88;;;1.10;;
51270;SDS011;37744;50.960;4.136;2023-06-04T13:15:18;3.42;;;1.20;;
51270;SDS011;37744;50.960;4.136;2023-06-04T13:17:44;3.42;;;1.25;;
51270;SDS011;37744;50.960;4.136;2023-06-04T13:20:09;1.95;;;1.20;;
51270;SDS011;37744;50.960;4.136;2023-06-04T13:22:34;2.92;;;1.13;;
51270;SDS011;37744;50.960;4.136;2023-06-04T13:25:00;2.30;;;1.35;;
51270;SDS011;37744;50.960;4.136;2023-06-04T13:27:26;2.53;;;1.30;;
51270;SDS011;37744;50.960;4.136;2023-06-04T13:29:51;1.90;;;1.33;;
51270;SDS011;37744;50.960;4.136;2023-06-04T13:32:16;3.67;;;1.48;;
51270;SDS011;37744;50.960;4.136;2023-06-04T13:34:42;2.13;;;1.30;;
51270;SDS011;37744;50.960;4.136;2023-06-04T13:37:07;2.60;;;1.42;;
51270;SDS011;37744;50.960;4.136;2023-06-04T13:39:35;2.40;;;1.30;;
51270;SDS011;37744;50.960;4.136;2023-06-04T13:42:01;2.75;;;1.20;;
51270;SDS011;37744;50.960;4.136;2023-06-04T13:44:26;1.60;;;1.30;;
51270;SDS011;37744;50.960;4.136;2023-06-04T13:46:53;1.50;;;1.40;;
51270;SDS011;37744;50.960;4.136;2023-06-04T13:49:19;2.00;;;1.58;;
51270;SDS011;37744;50.960;4.136;2023-06-04T13:51:44;3.40;;;1.10;;
51270;SDS011;37744;50.960;4.136;2023-06-04T13:54:09;1.40;;;1.30;;
51270;SDS011;37744;50.960;4.136;2023-06-04T13:56:35;4.25;;;1.48;;
51270;SDS011;37744;50.960;4.136;2023-06-04T13:59:01;2.45;;;1.55;;
51270;SDS011;37744;50.960;4.136;2023-06-04T14:01:26;2.25;;;1.30;;
51270;SDS011;37744;50.960;4.136;2023-06-04T14:03:51;2.25;;;1.30;;
51270;SDS011;37744;50.960;4.136;2023-06-04T14:06:17;3.28;;;1.50;;
51270;SDS011;37744;50.960;4.136;2023-06-04T14:08:42;2.40;;;1.38;;
51270;SDS011;37744;50.960;4.136;2023-06-04T14:11:08;2.22;;;1.30;;
51270;SDS011;37744;50.960;4.136;2023-06-04T14:13:35;4.53;;;1.15;;
51270;SDS011;37744;50.960;4.136;2023-06-04T14:16:01;1.83;;;1.30;;
51270;SDS011;37744;50.960;4.136;2023-06-04T14:18:27;1.63;;;1.20;;
51270;SDS011;37744;50.960;4.136;2023-06-04T14:20:52;2.70;;;1.38;;
51270;SDS011;37744;50.960;4.136;2023-06-04T14:23:17;3.17;;;1.48;;
51270;SDS011;37744;50.960;4.136;2023-06-04T14:25:43;1.30;;;1.30;;
51270;SDS011;37744;50.960;4.136;2023-06-04T14:28:08;6.50;;;1.67;;
51270;SDS011;37744;50.960;4.136;2023-06-04T14:30:34;3.77;;;1.53;;
51270;SDS011;37744;50.960;4.136;2023-06-04T14:32:59;2.25;;;1.20;;
51270;SDS011;37744;50.960;4.136;2023-06-04T14:35:24;4.50;;;1.57;;
51270;SDS011;37744;50.960;4.136;2023-06-04T14:37:49;2.25;;;1.40;;
51270;SDS011;37744;50.960;4.136;2023-06-04T14:40:15;3.67;;;1.20;;
51270;SDS011;37744;50.960;4.136;2023-06-04T14:42:40;2.65;;;1.20;;
51270;SDS011;37744;50.960;4.136;2023-06-04T14:45:05;2.25;;;1.02;;
51270;SDS011;37744;50.960;4.136;2023-06-04T14:47:31;1.77;;;1.27;;
51270;SDS011;37744;50.960;4.136;2023-06-04T14:49:56;1.77;;;1.17;;
51270;SDS011;37744;50.960;4.136;2023-06-04T14:52:22;1.90;;;1.40;;